Time;durP1;ratioP1;P1;durP2;ratioP2;P2;SDS_P1;SDS_P2;PMS_P1;PMS_P2;Temp;Humidity;BMP_temperature;BMP_pressure;BME280_temperature;BME280_humidity;BME280_pressure;Samples;Min_cycle;Max_cycle;Signal;HPM_P1;HPM_P2
2023/07/23 00:00:27;;;;;;;12.60;8.80;;;;;;;;;;4989766;28;25053;-67
2023/07/23 00:02:54;;;;;;;13.60;8.52;;;;;;;;;;4981900;28;25072;-68
2023/07/23 00:05:21;;;;;;;16.17;7.63;;;;;;;;;;4988426;28;25059;-68
2023/07/23 00:07:47;;;;;;;13.93;8.55;;;;;;;;;;4984886;28;25051;-68
2023/07/23 00:10:13;;;;;;;15.35;8.85;;;;;;;;;;4990774;28;25048;-68
2023/07/23 00:12:39;;;;;;;14.35;7.88;;;;;;;;;;4984658;28;25100;-68
2023/07/23 00:15:05;;;;;;;17.05;8.18;;;;;;;;;;4987061;28;25092;-68
2023/07/23 00:17:31;;;;;;;13.05;8.30;;;;;;;;;;4987853;28;25135;-67
2023/07/23 00:19:57;;;;;;;14.95;8.40;;;;;;;;;;4987213;28;25058;-68
2023/07/23 00:22:23;;;;;;;14.50;8.05;;;;;;;;;;4979229;28;25054;-68
2023/07/23 00:24:50;;;;;;;24.83;8.77;;;;;;;;;;4968232;28;25126;-68
2023/07/23 00:27:16;;;;;;;15.80;7.53;;;;;;;;;;4969892;28;25131;-67
2023/07/23 00:29:43;;;;;;;14.35;8.45;;;;;;;;;;4965962;28;25114;-67
2023/07/23 00:32:09;;;;;;;18.63;8.85;;;;;;;;;;4968509;28;25142;-68
2023/07/23 00:34:35;;;;;;;17.13;9.10;;;;;;;;;;4961744;28;25084;-69
2023/07/23 00:37:01;;;;;;;14.30;8.60;;;;;;;;;;4969281;28;25064;-67
2023/07/23 00:39:28;;;;;;;13.80;8.93;;;;;;;;;;4966929;28;25074;-69
2023/07/23 00:41:54;;;;;;;17.58;9.10;;;;;;;;;;4968662;28;25153;-67
2023/07/23 00:44:20;;;;;;;17.10;9.00;;;;;;;;;;4991131;28;25089;-67
2023/07/23 00:46:47;;;;;;;13.25;8.02;;;;;;;;;;4979419;28;25086;-68
2023/07/23 00:49:13;;;;;;;14.90;9.43;;;;;;;;;;4972320;28;25075;-68
2023/07/23 00:51:39;;;;;;;17.10;9.20;;;;;;;;;;4967702;28;25154;-68
2023/07/23 00:54:05;;;;;;;15.27;9.18;;;;;;;;;;4966780;28;25104;-67
2023/07/23 00:56:31;;;;;;;16.45;8.90;;;;;;;;;;4967969;28;25089;-69
2023/07/23 00:58:57;;;;;;;14.30;9.40;;;;;;;;;;4984300;28;25168;-67
2023/07/23 01:01:23;;;;;;;14.35;8.63;;;;;;;;;;4984990;28;25069;-67
2023/07/23 01:03:52;;;;;;;13.57;8.55;;;;;;;;;;4984329;28;25143;-67
2023/07/23 01:06:18;;;;;;;16.23;8.32;;;;;;;;;;4971678;28;25156;-67
2023/07/23 01:08:45;;;;;;;16.52;9.70;;;;;;;;;;4975140;28;25083;-68
2023/07/23 01:11:11;;;;;;;15.40;9.75;;;;;;;;;;4966906;28;25064;-67
2023/07/23 01:13:38;;;;;;;15.05;9.70;;;;;;;;;;4972609;28;25094;-68
2023/07/23 01:16:07;;;;;;;18.50;10.07;;;;;;;;;;4968801;28;25072;-68
2023/07/23 01:18:37;;;;;;;15.20;9.70;;;;;;;;;;4971993;28;25096;-67
2023/07/23 01:21:03;;;;;;;15.82;9.27;;;;;;;;;;4968703;28;25142;-66
2023/07/23 01:23:30;;;;;;;16.27;9.65;;;;;;;;;;4983855;28;25143;-68
2023/07/23 01:25:57;;;;;;;19.05;9.93;;;;;;;;;;4970673;28;25054;-67
2023/07/23 01:28:23;;;;;;;17.27;10.30;;;;;;;;;;4984969;28;25052;-68
2023/07/23 01:30:49;;;;;;;27.13;10.55;;;;;;;;;;4986731;28;25074;-68
2023/07/23 01:33:16;;;;;;;16.52;10.15;;;;;;;;;;4981111;28;25101;-67
2023/07/23 01:35:42;;;;;;;18.50;9.77;;;;;;;;;;4979930;28;25074;-67
2023/07/23 01:38:08;;;;;;;14.48;9.50;;;;;;;;;;4979882;28;25054;-68
2023/07/23 01:40:35;;;;;;;18.35;9.82;;;;;;;;;;4980859;28;25144;-67
2023/07/23 01:43:01;;;;;;;17.90;10.48;;;;;;;;;;4968877;28;25105;-68
2023/07/23 01:45:30;;;;;;;17.85;9.55;;;;;;;;;;4969457;28;25115;-68
2023/07/23 01:47:56;;;;;;;19.85;10.40;;;;;;;;;;4967280;28;25061;-68
2023/07/23 01:50:22;;;;;;;20.90;9.05;;;;;;;;;;4985126;28;25115;-68
2023/07/23 01:52:48;;;;;;;18.50;10.18;;;;;;;;;;4980138;28;25059;-67
2023/07/23 01:55:14;;;;;;;23.70;10.25;;;;;;;;;;4981293;28;25083;-69
2023/07/23 01:57:40;;;;;;;15.55;9.73;;;;;;;;;;4985199;28;25074;-68
2023/07/23 02:00:08;;;;;;;16.23;9.32;;;;;;;;;;4984123;28;25227;-69
2023/07/23 02:02:34;;;;;;;14.18;9.27;;;;;;;;;;4986547;28;25166;-68
2023/07/23 02:05:00;;;;;;;17.48;9.00;;;;;;;;;;4995305;28;25045;-69
2023/07/23 02:07:26;;;;;;;11.45;8.55;;;;;;;;;;4983925;28;25091;-67
2023/07/23 02:09:52;;;;;;;16.85;9.15;;;;;;;;;;4981962;28;25101;-67
2023/07/23 02:12:18;;;;;;;13.35;8.82;;;;;;;;;;4982599;28;25060;-68
2023/07/23 02:14:44;;;;;;;15.63;9.25;;;;;;;;;;4985567;28;25064;-68
2023/07/23 02:17:10;;;;;;;16.23;8.73;;;;;;;;;;4965840;28;24907;-67
2023/07/23 02:19:37;;;;;;;15.35;9.35;;;;;;;;;;4963689;28;25080;-66
2023/07/23 02:22:03;;;;;;;14.95;8.43;;;;;;;;;;4962480;28;25082;-66
2023/07/23 02:24:29;;;;;;;13.13;7.85;;;;;;;;;;4967304;28;25057;-67
2023/07/23 02:26:54;;;;;;;15.57;7.43;;;;;;;;;;4969208;28;25059;-67
2023/07/23 02:29:20;;;;;;;9.07;6.68;;;;;;;;;;4965026;28;25071;-66
2023/07/23 02:31:46;;;;;;;14.75;7.95;;;;;;;;;;4980241;28;25075;-68
2023/07/23 02:34:12;;;;;;;13.90;7.75;;;;;;;;;;4997441;28;25077;-66
2023/07/23 02:36:38;;;;;;;11.65;7.72;;;;;;;;;;4986540;28;25116;-68
2023/07/23 02:39:04;;;;;;;10.23;7.35;;;;;;;;;;4981745;28;25077;-68
2023/07/23 02:41:30;;;;;;;15.82;7.82;;;;;;;;;;4979085;28;25133;-68
2023/07/23 02:43:57;;;;;;;16.30;8.07;;;;;;;;;;4981079;28;25075;-68
2023/07/23 02:46:23;;;;;;;10.98;7.18;;;;;;;;;;4978859;28;25124;-66
2023/07/23 02:48:49;;;;;;;10.90;7.80;;;;;;;;;;4985179;28;25163;-68
2023/07/23 02:51:15;;;;;;;17.33;7.90;;;;;;;;;;4982611;28;25081;-68
2023/07/23 02:53:41;;;;;;;11.82;7.38;;;;;;;;;;4974710;28;25072;-67
2023/07/23 02:56:07;;;;;;;11.05;7.97;;;;;;;;;;4967036;28;25092;-67
2023/07/23 02:58:33;;;;;;;14.80;7.43;;;;;;;;;;4954497;28;25144;-68
2023/07/23 03:00:59;;;;;;;15.20;8.55;;;;;;;;;;4977262;28;25055;-69
2023/07/23 03:03:25;;;;;;;12.02;8.07;;;;;;;;;;4987292;28;25074;-67
2023/07/23 03:05:51;;;;;;;13.88;7.85;;;;;;;;;;4988263;28;25058;-67
2023/07/23 03:08:17;;;;;;;13.90;7.72;;;;;;;;;;4980678;28;25155;-67
2023/07/23 03:10:44;;;;;;;13.80;6.68;;;;;;;;;;4975414;28;25124;-68
2023/07/23 03:13:10;;;;;;;13.55;7.57;;;;;;;;;;4967157;28;25061;-68
2023/07/23 03:15:36;;;;;;;12.10;7.68;;;;;;;;;;4964231;28;25128;-68
2023/07/23 03:18:02;;;;;;;15.55;7.60;;;;;;;;;;4968787;28;25113;-67
2023/07/23 03:20:28;;;;;;;13.25;8.05;;;;;;;;;;4967530;28;25077;-67
2023/07/23 03:22:54;;;;;;;11.45;7.80;;;;;;;;;;4962668;28;25074;-67
2023/07/23 03:25:20;;;;;;;11.80;6.85;;;;;;;;;;4968172;28;25124;-68
2023/07/23 03:27:47;;;;;;;11.30;6.20;;;;;;;;;;4966268;28;25062;-68
2023/07/23 03:30:13;;;;;;;10.90;6.75;;;;;;;;;;4969577;28;25089;-67
2023/07/23 03:32:39;;;;;;;10.80;7.05;;;;;;;;;;4976770;28;25075;-67
2023/07/23 03:35:05;;;;;;;10.77;6.65;;;;;;;;;;4981124;28;25059;-68
2023/07/23 03:37:31;;;;;;;14.85;7.18;;;;;;;;;;4968405;28;25070;-66
2023/07/23 03:39:57;;;;;;;8.65;5.43;;;;;;;;;;4961483;28;25092;-67
2023/07/23 03:42:26;;;;;;;11.25;6.70;;;;;;;;;;4965565;28;25083;-67
2023/07/23 03:44:52;;;;;;;11.50;6.68;;;;;;;;;;4963418;28;25127;-67
2023/07/23 03:47:19;;;;;;;9.60;5.68;;;;;;;;;;4966406;28;25076;-68
2023/07/23 03:49:45;;;;;;;11.90;5.85;;;;;;;;;;4962115;28;25055;-66
2023/07/23 03:52:11;;;;;;;8.65;5.88;;;;;;;;;;4965389;28;25182;-67
2023/07/23 03:54:37;;;;;;;9.40;6.00;;;;;;;;;;4966886;28;25526;-68
2023/07/23 03:57:04;;;;;;;10.85;5.75;;;;;;;;;;4963784;28;25055;-67
2023/07/23 03:59:30;;;;;;;11.02;5.90;;;;;;;;;;4961192;28;25088;-69
2023/07/23 04:01:56;;;;;;;9.18;5.45;;;;;;;;;;4966808;28;25072;-67
2023/07/23 04:04:23;;;;;;;11.45;5.40;;;;;;;;;;4979327;28;25134;-67
2023/07/23 04:06:49;;;;;;;9.95;6.20;;;;;;;;;;4983956;28;25091;-66
2023/07/23 04:09:15;;;;;;;8.27;5.05;;;;;;;;;;4987588;28;25182;-67
2023/07/23 04:11:40;;;;;;;7.63;4.75;;;;;;;;;;4984509;28;25067;-68
2023/07/23 04:14:07;;;;;;;11.10;5.40;;;;;;;;;;4960484;28;25073;-66
2023/07/23 04:16:33;;;;;;;13.18;5.40;;;;;;;;;;4971029;28;25140;-67
2023/07/23 04:18:59;;;;;;;13.18;5.78;;;;;;;;;;4970884;28;25180;-65
2023/07/23 04:21:25;;;;;;;7.68;5.68;;;;;;;;;;4961824;28;25128;-67
2023/07/23 04:23:53;;;;;;;15.20;6.15;;;;;;;;;;4970568;28;25150;-67
2023/07/23 04:26:21;;;;;;;16.38;6.70;;;;;;;;;;4984988;28;25068;-66
2023/07/23 04:28:47;;;;;;;11.27;6.20;;;;;;;;;;4969398;28;25063;-66
2023/07/23 04:31:13;;;;;;;12.90;5.97;;;;;;;;;;4968557;28;25063;-66
2023/07/23 04:33:40;;;;;;;11.85;5.90;;;;;;;;;;4970504;28;25149;-67
2023/07/23 04:36:07;;;;;;;15.05;5.80;;;;;;;;;;4989879;28;25062;-67
2023/07/23 04:38:34;;;;;;;10.40;5.72;;;;;;;;;;4987130;28;25063;-67
2023/07/23 04:41:00;;;;;;;13.10;6.05;;;;;;;;;;4989143;28;25088;-69
2023/07/23 04:43:26;;;;;;;12.95;6.10;;;;;;;;;;4987890;28;25148;-67
2023/07/23 04:45:52;;;;;;;12.60;5.68;;;;;;;;;;4985577;28;25074;-68
2023/07/23 04:48:18;;;;;;;12.55;6.05;;;;;;;;;;4982282;28;25082;-68
2023/07/23 04:50:44;;;;;;;14.60;5.47;;;;;;;;;;4989995;28;25145;-67
2023/07/23 04:53:10;;;;;;;16.90;5.88;;;;;;;;;;4998894;28;25137;-68
2023/07/23 04:55:36;;;;;;;10.55;5.88;;;;;;;;;;4973569;28;25149;-65
2023/07/23 04:58:03;;;;;;;14.00;6.30;;;;;;;;;;4963914;28;25087;-67
2023/07/23 05:00:29;;;;;;;10.30;5.57;;;;;;;;;;4960339;28;25090;-65
2023/07/23 05:02:55;;;;;;;9.02;4.93;;;;;;;;;;4967435;28;25117;-67
2023/07/23 05:05:21;;;;;;;13.77;6.00;;;;;;;;;;4980645;28;25147;-67
2023/07/23 05:07:47;;;;;;;10.55;6.07;;;;;;;;;;4986098;28;25049;-69
2023/07/23 05:10:13;;;;;;;8.48;4.90;;;;;;;;;;4985672;28;25141;-68
2023/07/23 05:12:39;;;;;;;10.85;5.25;;;;;;;;;;4983865;28;25135;-66
2023/07/23 05:15:14;;;;;;;8.85;5.38;;;;;;;;;;4983842;28;25052;-67
2023/07/23 05:17:41;;;;;;;7.90;5.28;;;;;;;;;;4984114;28;25122;-67
2023/07/23 05:20:08;;;;;;;10.60;4.93;;;;;;;;;;4981878;28;25062;-65
2023/07/23 05:22:36;;;;;;;6.28;4.32;;;;;;;;;;4982015;28;25055;-67
2023/07/23 05:25:03;;;;;;;11.73;5.20;;;;;;;;;;4981293;28;25107;-66
2023/07/23 05:27:29;;;;;;;8.80;4.88;;;;;;;;;;4978239;28;25070;-67
2023/07/23 05:29:55;;;;;;;9.25;5.05;;;;;;;;;;4978804;28;25073;-67
2023/07/23 05:32:27;;;;;;;6.72;4.65;;;;;;;;;;5061248;27;25087;-66
2023/07/23 05:34:56;;;;;;;8.18;4.60;;;;;;;;;;5046006;28;25054;-68
2023/07/23 05:37:22;;;;;;;13.52;5.10;;;;;;;;;;5031857;28;25133;-68
2023/07/23 05:39:48;;;;;;;12.15;6.75;;;;;;;;;;5010924;28;25151;-65
2023/07/23 05:42:14;;;;;;;15.15;5.63;;;;;;;;;;5018429;28;25062;-66
2023/07/23 05:44:40;;;;;;;8.90;5.75;;;;;;;;;;5027695;28;25135;-66
2023/07/23 05:47:07;;;;;;;7.53;5.57;;;;;;;;;;5019544;28;25147;-65
2023/07/23 05:49:33;;;;;;;11.77;6.25;;;;;;;;;;5023406;28;25056;-66
2023/07/23 05:51:59;;;;;;;11.30;6.10;;;;;;;;;;5019084;28;25139;-67
2023/07/23 05:54:25;;;;;;;10.10;5.75;;;;;;;;;;5026928;28;25064;-66
2023/07/23 05:56:51;;;;;;;10.32;5.32;;;;;;;;;;5021648;28;25161;-68
2023/07/23 05:59:17;;;;;;;11.88;6.07;;;;;;;;;;5022398;28;25173;-65
2023/07/23 06:01:43;;;;;;;10.30;5.80;;;;;;;;;;5009568;28;25057;-66
2023/07/23 06:04:09;;;;;;;14.20;6.25;;;;;;;;;;5029158;28;25070;-65
2023/07/23 06:06:35;;;;;;;9.95;5.72;;;;;;;;;;5020431;28;25057;-67
2023/07/23 06:09:01;;;;;;;9.18;5.72;;;;;;;;;;5020378;28;25081;-66
2023/07/23 06:11:27;;;;;;;9.93;5.93;;;;;;;;;;5023217;28;25051;-67
2023/07/23 06:13:53;;;;;;;11.82;6.28;;;;;;;;;;5021090;28;25072;-64
2023/07/23 06:16:19;;;;;;;10.77;6.00;;;;;;;;;;5030334;28;25071;-65
2023/07/23 06:18:45;;;;;;;13.27;6.18;;;;;;;;;;5028021;28;25078;-66
2023/07/23 06:21:11;;;;;;;9.25;5.78;;;;;;;;;;5020850;28;25073;-66
2023/07/23 06:23:37;;;;;;;12.68;6.30;;;;;;;;;;5025199;28;25147;-66
2023/07/23 06:26:03;;;;;;;12.18;6.20;;;;;;;;;;5014616;28;25137;-67
2023/07/23 06:28:29;;;;;;;10.45;5.95;;;;;;;;;;5018344;28;25141;-66
2023/07/23 06:30:55;;;;;;;12.13;5.72;;;;;;;;;;5016133;28;25057;-66
2023/07/23 06:33:21;;;;;;;10.93;6.70;;;;;;;;;;5018304;28;25132;-64
2023/07/23 06:35:48;;;;;;;11.40;6.07;;;;;;;;;;5017896;28;25060;-64
2023/07/23 06:38:15;;;;;;;11.70;6.47;;;;;;;;;;5021358;28;25159;-63
2023/07/23 06:40:54;;;;;;;16.25;7.28;;;;;;;;;;5025144;28;25135;-64
2023/07/23 06:43:20;;;;;;;14.20;6.85;;;;;;;;;;5018317;28;25062;-64
2023/07/23 06:45:47;;;;;;;15.98;6.93;;;;;;;;;;5019552;28;25143;-64
2023/07/23 06:48:13;;;;;;;13.60;7.40;;;;;;;;;;5006577;28;25126;-65
2023/07/23 06:50:39;;;;;;;12.93;6.35;;;;;;;;;;5007581;28;25071;-64
2023/07/23 06:53:06;;;;;;;13.88;7.28;;;;;;;;;;5013011;28;25055;-62
2023/07/23 06:55:32;;;;;;;14.57;6.65;;;;;;;;;;5001749;28;25048;-64
2023/07/23 06:57:58;;;;;;;10.95;6.80;;;;;;;;;;4999350;28;25059;-65
2023/07/23 07:00:24;;;;;;;12.63;5.97;;;;;;;;;;4999103;28;25052;-64
2023/07/23 07:02:50;;;;;;;11.93;6.00;;;;;;;;;;5003395;28;25156;-64
2023/07/23 07:05:15;;;;;;;12.60;6.28;;;;;;;;;;5005482;28;25063;-63
2023/07/23 07:07:41;;;;;;;9.23;6.15;;;;;;;;;;5009358;28;25061;-62
2023/07/23 07:10:08;;;;;;;11.23;5.53;;;;;;;;;;5008679;28;25094;-63
2023/07/23 07:12:34;;;;;;;12.63;6.35;;;;;;;;;;5003787;28;25121;-65
2023/07/23 07:15:00;;;;;;;11.98;6.00;;;;;;;;;;5000649;28;25177;-64
2023/07/23 07:17:26;;;;;;;12.25;5.72;;;;;;;;;;5002277;28;25089;-65
2023/07/23 07:19:52;;;;;;;10.73;6.32;;;;;;;;;;5005261;28;25075;-64
2023/07/23 07:22:18;;;;;;;11.07;6.25;;;;;;;;;;5011828;28;25119;-64
2023/07/23 07:24:44;;;;;;;10.20;5.82;;;;;;;;;;5003688;28;25055;-64
2023/07/23 07:27:10;;;;;;;9.13;5.80;;;;;;;;;;4999354;28;25067;-64
2023/07/23 07:29:39;;;;;;;10.13;6.20;;;;;;;;;;4991308;28;25134;-64
2023/07/23 07:32:09;;;;;;;10.00;5.10;;;;;;;;;;5013231;28;25092;-65
2023/07/23 07:34:35;;;;;;;9.23;5.32;;;;;;;;;;5007754;28;25105;-63
2023/07/23 07:37:01;;;;;;;9.70;5.70;;;;;;;;;;5006049;28;25086;-65
2023/07/23 07:39:27;;;;;;;9.55;5.63;;;;;;;;;;5004095;28;25068;-64
2023/07/23 07:41:54;;;;;;;12.57;6.28;;;;;;;;;;5014924;28;25078;-65
2023/07/23 07:44:20;;;;;;;9.52;5.53;;;;;;;;;;5007378;28;25062;-62
2023/07/23 07:46:46;;;;;;;7.28;4.85;;;;;;;;;;5004574;28;25135;-64
2023/07/23 07:49:12;;;;;;;9.80;5.28;;;;;;;;;;5009929;28;25074;-66
2023/07/23 07:51:39;;;;;;;11.50;6.05;;;;;;;;;;5002109;28;25063;-65
2023/07/23 07:54:06;;;;;;;9.23;5.63;;;;;;;;;;4997577;28;25078;-65
2023/07/23 07:56:32;;;;;;;10.60;4.97;;;;;;;;;;5007343;28;25068;-65
2023/07/23 07:58:58;;;;;;;8.88;5.07;;;;;;;;;;5006797;28;25149;-65
2023/07/23 08:01:24;;;;;;;9.35;5.65;;;;;;;;;;4999592;28;25059;-64
2023/07/23 08:03:50;;;;;;;8.25;5.13;;;;;;;;;;5008990;28;25069;-65
2023/07/23 08:06:16;;;;;;;9.38;5.45;;;;;;;;;;5001827;28;25069;-64
2023/07/23 08:08:43;;;;;;;8.75;5.07;;;;;;;;;;5003107;28;25059;-68
2023/07/23 08:11:09;;;;;;;7.22;5.28;;;;;;;;;;5008919;28;25068;-66
2023/07/23 08:13:39;;;;;;;7.18;4.88;;;;;;;;;;5013451;28;25089;-67
2023/07/23 08:16:06;;;;;;;11.23;5.78;;;;;;;;;;5003024;28;25055;-66
2023/07/23 08:18:32;;;;;;;9.40;5.20;;;;;;;;;;5010872;28;25080;-66
2023/07/23 08:20:58;;;;;;;7.22;4.68;;;;;;;;;;5002701;28;25087;-67
2023/07/23 08:23:28;;;;;;;10.40;5.47;;;;;;;;;;5001221;28;25058;-66
2023/07/23 08:25:55;;;;;;;8.60;5.32;;;;;;;;;;5004964;28;25096;-68
2023/07/23 08:28:22;;;;;;;7.90;5.05;;;;;;;;;;5011161;28;25059;-66
2023/07/23 08:30:49;;;;;;;9.20;6.05;;;;;;;;;;5011059;28;25062;-64
2023/07/23 08:33:17;;;;;;;9.82;5.47;;;;;;;;;;5003900;28;25102;-66
2023/07/23 08:35:43;;;;;;;8.23;5.13;;;;;;;;;;5010389;28;25066;-64
2023/07/23 08:38:10;;;;;;;9.50;4.88;;;;;;;;;;5000645;28;25063;-64
2023/07/23 08:40:41;;;;;;;9.25;5.13;;;;;;;;;;5013565;28;25091;-68
2023/07/23 08:43:23;;;;;;;8.85;5.07;;;;;;;;;;4996337;28;25075;-67
2023/07/23 08:45:52;;;;;;;10.48;5.35;;;;;;;;;;5006219;28;25066;-66
2023/07/23 08:48:19;;;;;;;9.27;5.05;;;;;;;;;;5008150;28;25108;-66
2023/07/23 08:50:46;;;;;;;8.38;5.45;;;;;;;;;;5003955;28;25058;-65
2023/07/23 08:53:13;;;;;;;7.55;5.38;;;;;;;;;;5007467;28;25101;-66
2023/07/23 08:55:41;;;;;;;9.65;5.20;;;;;;;;;;5005718;28;25080;-67
2023/07/23 08:58:07;;;;;;;9.10;6.03;;;;;;;;;;5005941;28;25054;-67
2023/07/23 09:00:33;;;;;;;8.57;5.30;;;;;;;;;;5021541;28;25054;-64
2023/07/23 09:03:03;;;;;;;7.53;5.22;;;;;;;;;;5017300;28;25161;-66
2023/07/23 09:05:29;;;;;;;7.03;5.20;;;;;;;;;;5005985;28;25061;-65
2023/07/23 09:07:55;;;;;;;7.97;5.45;;;;;;;;;;5007089;28;25128;-66
2023/07/23 09:10:21;;;;;;;7.90;5.03;;;;;;;;;;5005349;28;25054;-65
2023/07/23 09:12:47;;;;;;;8.18;5.35;;;;;;;;;;5011574;28;25153;-67
2023/07/23 09:15:13;;;;;;;8.80;5.85;;;;;;;;;;5013148;28;25258;-65
2023/07/23 09:17:40;;;;;;;8.07;5.38;;;;;;;;;;4996435;28;25162;-67
2023/07/23 09:20:10;;;;;;;8.73;5.07;;;;;;;;;;4999136;28;25100;-66
2023/07/23 09:22:35;;;;;;;11.70;5.88;;;;;;;;;;5006695;28;25162;-66
2023/07/23 09:25:02;;;;;;;10.65;6.57;;;;;;;;;;5012777;28;25056;-66
2023/07/23 09:27:36;;;;;;;9.27;5.72;;;;;;;;;;5007406;28;25156;-67
2023/07/23 09:30:02;;;;;;;13.20;5.50;;;;;;;;;;5004241;28;25103;-67
2023/07/23 09:32:28;;;;;;;10.05;5.47;;;;;;;;;;5004469;28;25158;-66
2023/07/23 09:34:55;;;;;;;9.00;5.68;;;;;;;;;;5001021;28;25063;-67
2023/07/23 09:37:21;;;;;;;10.85;6.07;;;;;;;;;;4999258;28;25070;-64
2023/07/23 09:39:47;;;;;;;10.80;5.28;;;;;;;;;;5008844;28;25085;-66
2023/07/23 09:42:13;;;;;;;9.95;6.25;;;;;;;;;;5004515;28;25085;-65
2023/07/23 09:44:42;;;;;;;13.00;7.22;;;;;;;;;;5012157;28;25073;-67
2023/07/23 09:47:08;;;;;;;10.07;7.30;;;;;;;;;;5004432;28;25072;-66
2023/07/23 09:49:34;;;;;;;9.48;6.68;;;;;;;;;;5005093;28;25120;-64
2023/07/23 09:52:03;;;;;;;9.15;6.28;;;;;;;;;;5000400;28;25061;-63
2023/07/23 09:54:29;;;;;;;11.23;5.65;;;;;;;;;;4999960;28;25098;-67
2023/07/23 09:56:55;;;;;;;11.63;6.70;;;;;;;;;;5006636;28;25145;-65
2023/07/23 09:59:22;;;;;;;12.40;7.43;;;;;;;;;;5015118;28;25048;-66
2023/07/23 10:01:48;;;;;;;13.88;7.15;;;;;;;;;;5008707;28;25103;-66
2023/07/23 10:04:16;;;;;;;11.35;6.53;;;;;;;;;;5002107;28;25157;-67
2023/07/23 10:06:42;;;;;;;9.40;7.22;;;;;;;;;;5002677;28;25092;-66
2023/07/23 10:09:10;;;;;;;10.30;7.32;;;;;;;;;;5014726;28;25085;-65
2023/07/23 10:11:36;;;;;;;12.35;6.90;;;;;;;;;;5000996;28;25078;-68
2023/07/23 10:14:02;;;;;;;12.48;7.00;;;;;;;;;;5011699;28;25103;-69
2023/07/23 10:16:40;;;;;;;10.00;6.53;;;;;;;;;;5003005;28;25102;-67
2023/07/23 10:19:06;;;;;;;12.75;7.80;;;;;;;;;;5003949;28;25087;-64
2023/07/23 10:21:33;;;;;;;12.98;7.57;;;;;;;;;;5008817;28;25050;-65
2023/07/23 10:24:00;;;;;;;11.65;8.05;;;;;;;;;;4999788;28;25070;-64
2023/07/23 10:26:27;;;;;;;13.98;7.63;;;;;;;;;;5014473;28;25070;-66
2023/07/23 10:28:58;;;;;;;9.35;7.20;;;;;;;;;;5010625;28;25091;-66
2023/07/23 10:31:25;;;;;;;10.57;8.20;;;;;;;;;;5014025;28;25050;-65
2023/07/23 10:33:52;;;;;;;10.23;7.45;;;;;;;;;;5005074;28;25080;-67
2023/07/23 10:36:22;;;;;;;10.35;7.25;;;;;;;;;;5009825;28;25049;-66
2023/07/23 10:39:03;;;;;;;9.65;7.13;;;;;;;;;;5005630;28;25074;-65
2023/07/23 10:41:49;;;;;;;10.43;7.47;;;;;;;;;;5005225;28;25062;-67
2023/07/23 10:44:21;;;;;;;10.30;7.30;;;;;;;;;;5020663;28;25150;-66
2023/07/23 10:46:47;;;;;;;9.20;6.93;;;;;;;;;;5003738;28;25048;-68
2023/07/23 10:49:18;;;;;;;10.40;7.03;;;;;;;;;;5009156;28;26159;-66
2023/07/23 10:51:45;;;;;;;10.50;6.83;;;;;;;;;;5014464;28;25070;-66
2023/07/23 10:54:11;;;;;;;10.23;7.13;;;;;;;;;;5003789;28;25070;-66
2023/07/23 10:56:41;;;;;;;9.70;6.57;;;;;;;;;;5009154;28;25107;-67
2023/07/23 10:59:08;;;;;;;8.43;6.20;;;;;;;;;;5008760;28;25138;-67
2023/07/23 11:01:35;;;;;;;9.57;6.45;;;;;;;;;;5005862;28;25069;-65
2023/07/23 11:04:06;;;;;;;9.82;5.82;;;;;;;;;;5004892;28;25051;-66
2023/07/23 11:06:33;;;;;;;10.45;6.68;;;;;;;;;;5007056;28;25066;-69
2023/07/23 11:09:08;;;;;;;10.38;6.22;;;;;;;;;;5007408;28;25095;-67
2023/07/23 11:11:41;;;;;;;8.55;5.88;;;;;;;;;;5008135;28;25061;-63
2023/07/23 11:14:20;;;;;;;7.47;6.00;;;;;;;;;;5010692;28;25125;-67
2023/07/23 11:16:50;;;;;;;9.95;6.05;;;;;;;;;;5006084;28;25055;-67
2023/07/23 11:19:17;;;;;;;8.93;6.57;;;;;;;;;;5011907;28;25073;-66
2023/07/23 11:21:44;;;;;;;9.02;6.55;;;;;;;;;;5019834;28;25080;-65
2023/07/23 11:24:10;;;;;;;8.15;6.03;;;;;;;;;;5012556;28;25074;-66
2023/07/23 11:26:36;;;;;;;8.27;6.05;;;;;;;;;;5011513;28;25068;-67
2023/07/23 11:29:03;;;;;;;8.00;5.80;;;;;;;;;;5014085;28;25070;-67
2023/07/23 11:31:29;;;;;;;7.93;5.80;;;;;;;;;;5013353;28;25057;-66
2023/07/23 11:33:58;;;;;;;6.65;5.65;;;;;;;;;;5007635;28;25069;-66
2023/07/23 11:36:24;;;;;;;9.25;6.03;;;;;;;;;;5011502;28;25129;-66
2023/07/23 11:39:00;;;;;;;5.53;4.85;;;;;;;;;;5011338;28;25090;-66
2023/07/23 11:41:38;;;;;;;7.07;5.22;;;;;;;;;;5008999;28;25067;-66
2023/07/23 11:44:04;;;;;;;7.68;4.97;;;;;;;;;;5008623;28;25060;-66
2023/07/23 11:46:41;;;;;;;5.53;4.85;;;;;;;;;;5011368;28;25051;-65
2023/07/23 11:49:08;;;;;;;6.15;5.30;;;;;;;;;;5006400;28;25081;-63
2023/07/23 11:51:34;;;;;;;9.85;5.95;;;;;;;;;;5003745;28;25144;-67
2023/07/23 11:54:02;;;;;;;8.10;6.30;;;;;;;;;;4998665;28;25065;-66
2023/07/23 11:56:30;;;;;;;7.15;5.68;;;;;;;;;;5015304;28;25067;-66
2023/07/23 11:58:56;;;;;;;7.68;6.13;;;;;;;;;;5009873;28;25077;-66
2023/07/23 12:01:22;;;;;;;6.97;6.20;;;;;;;;;;5007158;28;25060;-65
2023/07/23 12:03:49;;;;;;;7.68;6.38;;;;;;;;;;5007756;28;25071;-64
2023/07/23 12:06:16;;;;;;;6.95;6.20;;;;;;;;;;5011008;28;25104;-67
2023/07/23 12:08:48;;;;;;;7.00;5.88;;;;;;;;;;5005226;28;25125;-65
2023/07/23 12:11:15;;;;;;;7.43;6.13;;;;;;;;;;5009691;28;25194;-66
2023/07/23 12:13:45;;;;;;;7.65;5.20;;;;;;;;;;5010777;28;25063;-66
2023/07/23 12:16:15;;;;;;;7.95;5.10;;;;;;;;;;5005497;28;25063;-65
2023/07/23 12:18:47;;;;;;;6.47;5.07;;;;;;;;;;5008473;28;25097;-66
2023/07/23 12:21:13;;;;;;;;;;;;;;;;;;5012121;28;25062;-64
2023/07/23 12:23:42;;;;;;;7.38;5.00;;;;;;;;;;5017039;28;24088;-64
2023/07/23 12:26:09;;;;;;;6.65;4.88;;;;;;;;;;5011634;28;25130;-66
2023/07/23 12:28:35;;;;;;;5.00;4.20;;;;;;;;;;5000000;28;25066;-65
2023/07/23 12:31:02;;;;;;;7.95;4.75;;;;;;;;;;5008946;28;25086;-65
2023/07/23 12:33:28;;;;;;;5.25;3.88;;;;;;;;;;5005622;28;25088;-65
2023/07/23 12:35:54;;;;;;;5.72;4.10;;;;;;;;;;5007589;28;25078;-67
2023/07/23 12:38:20;;;;;;;6.10;3.60;;;;;;;;;;5012460;28;25079;-66
2023/07/23 12:40:46;;;;;;;4.78;3.78;;;;;;;;;;5004208;28;25062;-65
2023/07/23 12:43:12;;;;;;;7.32;3.17;;;;;;;;;;5004328;28;25147;-65
2023/07/23 12:45:38;;;;;;;5.35;2.75;;;;;;;;;;5005086;28;25123;-66
2023/07/23 12:48:04;;;;;;;6.72;2.63;;;;;;;;;;4993233;28;25065;-65
2023/07/23 12:50:30;;;;;;;4.18;2.97;;;;;;;;;;4998942;28;25071;-64
2023/07/23 12:52:56;;;;;;;3.97;2.60;;;;;;;;;;4999236;28;25059;-66
2023/07/23 12:55:21;;;;;;;5.40;2.72;;;;;;;;;;5003236;28;25062;-66
2023/07/23 12:57:47;;;;;;;3.25;2.90;;;;;;;;;;4999960;28;25113;-65
2023/07/23 13:00:14;;;;;;;3.83;2.08;;;;;;;;;;5000535;28;25146;-66
2023/07/23 13:02:39;;;;;;;10.23;2.58;;;;;;;;;;5005841;28;25128;-64
2023/07/23 13:05:06;;;;;;;4.15;2.78;;;;;;;;;;5003560;28;25071;-66
2023/07/23 13:07:31;;;;;;;3.38;2.53;;;;;;;;;;5002131;28;25171;-66
2023/07/23 13:09:57;;;;;;;4.57;2.58;;;;;;;;;;5001162;28;25086;-65
2023/07/23 13:12:23;;;;;;;5.28;2.67;;;;;;;;;;5003057;28;25072;-65
2023/07/23 13:14:49;;;;;;;2.72;2.08;;;;;;;;;;5006844;28;25066;-67
2023/07/23 13:17:15;;;;;;;3.75;2.55;;;;;;;;;;4998620;28;25162;-66
2023/07/23 13:19:41;;;;;;;3.60;2.45;;;;;;;;;;5003982;28;25134;-66
2023/07/23 13:22:07;;;;;;;8.07;3.33;;;;;;;;;;5003929;28;25168;-66
2023/07/23 13:24:33;;;;;;;4.00;2.97;;;;;;;;;;4994120;28;25134;-66
2023/07/23 13:26:59;;;;;;;6.00;3.47;;;;;;;;;;5004596;28;25139;-66
2023/07/23 13:29:25;;;;;;;6.53;3.10;;;;;;;;;;5001869;28;25069;-65
2023/07/23 13:31:51;;;;;;;4.95;2.80;;;;;;;;;;4998270;28;25154;-66
2023/07/23 13:34:17;;;;;;;5.35;3.40;;;;;;;;;;5002393;28;25051;-65
2023/07/23 13:36:43;;;;;;;5.65;3.50;;;;;;;;;;5004148;28;25151;-65
2023/07/23 13:39:09;;;;;;;7.18;4.47;;;;;;;;;;5003640;28;25070;-66
2023/07/23 13:41:35;;;;;;;9.05;3.28;;;;;;;;;;5000957;28;25064;-68
2023/07/23 13:44:01;;;;;;;5.40;3.10;;;;;;;;;;5009053;28;25073;-66
2023/07/23 13:46:27;;;;;;;7.50;3.53;;;;;;;;;;5008274;28;25077;-66
2023/07/23 13:48:53;;;;;;;5.78;2.95;;;;;;;;;;5008499;28;25067;-64
2023/07/23 13:51:20;;;;;;;8.68;3.13;;;;;;;;;;5008347;28;25078;-68
2023/07/23 13:53:47;;;;;;;8.35;3.15;;;;;;;;;;5015626;28;25132;-66
2023/07/23 13:56:13;;;;;;;6.45;3.08;;;;;;;;;;5014911;28;25065;-66
2023/07/23 13:58:39;;;;;;;5.90;2.95;;;;;;;;;;5006307;28;25064;-66
2023/07/23 14:01:05;;;;;;;4.20;3.42;;;;;;;;;;4999594;28;25065;-66
2023/07/23 14:03:31;;;;;;;4.57;3.33;;;;;;;;;;5010831;28;25104;-67
2023/07/23 14:05:57;;;;;;;4.82;3.10;;;;;;;;;;5021614;28;25086;-68
2023/07/23 14:08:23;;;;;;;5.40;2.40;;;;;;;;;;5001353;28;25073;-65
2023/07/23 14:10:49;;;;;;;7.22;2.53;;;;;;;;;;5007377;28;25106;-67
2023/07/23 14:13:14;;;;;;;4.78;2.83;;;;;;;;;;5009760;28;25154;-67
2023/07/23 14:15:41;;;;;;;8.07;3.33;;;;;;;;;;5011913;28;25077;-65
2023/07/23 14:18:07;;;;;;;8.75;2.90;;;;;;;;;;5008761;28;25062;-65
2023/07/23 14:20:33;;;;;;;7.63;2.95;;;;;;;;;;5010674;28;25165;-66
2023/07/23 14:22:59;;;;;;;7.65;3.47;;;;;;;;;;4998891;28;25068;-66
2023/07/23 14:25:25;;;;;;;10.82;3.47;;;;;;;;;;5006807;28;25167;-66
2023/07/23 14:27:51;;;;;;;5.38;2.58;;;;;;;;;;5005584;28;25059;-65
2023/07/23 14:30:17;;;;;;;7.65;2.83;;;;;;;;;;5009784;28;25086;-68
2023/07/23 14:32:43;;;;;;;13.73;4.43;;;;;;;;;;5012247;28;25082;-66